Time;durP1;ratioP1;P1;durP2;ratioP2;P2;SDS_P1;SDS_P2;PMS_P1;PMS_P2;Temp;Humidity;BMP_temperature;BMP_pressure;BME280_temperature;BME280_humidity;BME280_pressure;Samples;Min_cycle;Max_cycle;Signal;HPM_P1;HPM_P2
2022/04/15 00:00:08;;;;;;;1.48;1.00;;;16.10;90.70;;;;;;5009993;28;20054;-79
2022/04/15 00:02:36;;;;;;;1.50;1.00;;;16.20;90.70;;;;;;4982981;28;20050;-79
2022/04/15 00:05:29;;;;;;;1.20;0.80;;;16.10;90.60;;;;;;4986805;28;20053;-77
2022/04/15 00:07:53;;;;;;;1.45;0.80;;;16.10;90.60;;;;;;5000503;28;20054;-76
2022/04/15 00:10:19;;;;;;;1.58;1.00;;;16.10;90.50;;;;;;5001826;28;20520;-78
2022/04/15 00:12:46;;;;;;;1.35;0.88;;;16.10;90.50;;;;;;5000031;28;20030;-77
2022/04/15 00:15:14;;;;;;;1.48;0.90;;;16.10;90.50;;;;;;4978525;28;20126;-77
2022/04/15 00:17:50;;;;;;;1.98;0.90;;;16.10;90.50;;;;;;5008995;28;20046;-76
2022/04/15 00:20:17;;;;;;;1.20;0.70;;;16.10;90.50;;;;;;5017835;28;20050;-78
2022/04/15 00:22:44;;;;;;;2.20;0.93;;;16.10;90.40;;;;;;5012317;28;20034;-78
2022/04/15 00:25:13;;;;;;;1.20;0.85;;;16.10;90.40;;;;;;5001219;28;20100;-77
2022/04/15 00:27:41;;;;;;;1.30;0.90;;;16.20;90.40;;;;;;5007864;28;20068;-77
2022/04/15 00:30:09;;;;;;;1.45;0.98;;;16.10;90.40;;;;;;5006106;28;20041;-78
2022/04/15 00:32:36;;;;;;;1.70;0.90;;;16.10;90.40;;;;;;5001168;28;20034;-77
2022/04/15 00:35:04;;;;;;;1.38;0.90;;;16.10;90.30;;;;;;5000407;28;20038;-79
2022/04/15 00:37:31;;;;;;;1.67;0.80;;;16.10;90.30;;;;;;5001489;28;20461;-79
2022/04/15 00:39:58;;;;;;;1.25;0.90;;;16.10;90.20;;;;;;4982512;28;20514;-78
2022/04/15 00:42:26;;;;;;;2.55;0.90;;;16.10;90.20;;;;;;4999606;28;20393;-77
2022/04/15 00:44:54;;;;;;;1.90;0.80;;;16.10;90.10;;;;;;5000034;28;20080;-77
2022/04/15 00:47:31;;;;;;;1.88;0.90;;;16.10;90.20;;;;;;4984762;28;20033;-78
2022/04/15 00:50:00;;;;;;;1.45;0.90;;;16.10;89.70;;;;;;4995572;28;20042;-77
2022/04/15 00:52:33;;;;;;;1.73;1.00;;;16.10;89.70;;;;;;4999157;28;20030;-77
2022/04/15 00:55:03;;;;;;;1.50;0.93;;;16.10;89.60;;;;;;5000300;28;20466;-78
2022/04/15 00:57:33;;;;;;;2.20;1.08;;;16.10;89.30;;;;;;5000893;28;20902;-77
2022/04/15 01:00:02;;;;;;;1.75;0.95;;;16.10;89.40;;;;;;5009158;28;20057;-78
2022/04/15 01:02:29;;;;;;;1.92;0.80;;;16.10;89.10;;;;;;5014347;28;20037;-77
2022/04/15 01:04:57;;;;;;;1.83;0.90;;;16.10;89.20;;;;;;5014134;28;20484;-77
2022/04/15 01:07:26;;;;;;;1.95;0.90;;;16.10;89.20;;;;;;5012823;28;20069;-78
2022/04/15 01:09:54;;;;;;;2.00;1.08;;;16.10;89.00;;;;;;5021842;28;20060;-77
2022/04/15 01:12:23;;;;;;;1.70;1.00;;;16.10;89.00;;;;;;5016170;28;20558;-79
2022/04/15 01:14:52;;;;;;;1.67;1.10;;;16.10;88.80;;;;;;5023092;28;20515;-77
2022/04/15 01:17:20;;;;;;;1.17;0.80;;;16.10;88.80;;;;;;5014945;28;20136;-76
2022/04/15 01:19:47;;;;;;;1.75;1.05;;;16.00;88.70;;;;;;5008119;28;20055;-78
2022/04/15 01:22:16;;;;;;;1.42;0.88;;;16.00;88.60;;;;;;5019461;28;20063;-78
2022/04/15 01:24:44;;;;;;;1.98;0.88;;;16.10;88.70;;;;;;5004010;28;20041;-78
2022/04/15 01:27:22;;;;;;;1.25;0.70;;;16.00;88.50;;;;;;5015799;28;20041;-78
2022/04/15 01:29:49;;;;;;;1.50;0.90;;;16.10;88.60;;;;;;5014183;28;20172;-76
2022/04/15 01:32:18;;;;;;;1.23;0.90;;;16.00;88.40;;;;;;5022230;28;20052;-77
2022/04/15 01:34:45;;;;;;;1.80;0.98;;;16.00;88.30;;;;;;5019856;28;20116;-78
2022/04/15 01:37:15;;;;;;;2.20;0.82;;;16.00;88.20;;;;;;5019450;28;20111;-78
2022/04/15 01:39:42;;;;;;;1.63;1.02;;;16.00;88.20;;;;;;5021436;28;20128;-78
2022/04/15 01:42:13;;;;;;;1.15;0.82;;;16.00;88.20;;;;;;5020541;28;20041;-78
2022/04/15 01:44:40;;;;;;;1.80;0.90;;;16.00;88.20;;;;;;5015396;28;20048;-78
2022/04/15 01:47:08;;;;;;;1.48;1.00;;;16.00;88.10;;;;;;5020435;28;20115;-77
2022/04/15 01:49:35;;;;;;;1.75;0.90;;;16.00;88.00;;;;;;5018384;28;20038;-79
2022/04/15 01:52:02;;;;;;;1.60;0.93;;;16.00;88.00;;;;;;5018168;28;20049;-78
2022/04/15 01:54:29;;;;;;;1.58;1.00;;;16.00;88.80;;;;;;5020381;28;20033;-78
2022/04/15 01:56:56;;;;;;;1.73;0.90;;;16.00;87.90;;;;;;5034770;28;20041;-78
2022/04/15 01:59:29;;;;;;;1.60;0.93;;;16.00;87.80;;;;;;5029073;28;20085;-77
2022/04/15 02:01:56;;;;;;;1.63;1.00;;;16.00;87.80;;;;;;5016523;28;20088;-77
2022/04/15 02:04:23;;;;;;;1.60;0.90;;;16.10;88.00;;;;;;5017215;28;20040;-79
2022/04/15 02:06:50;;;;;;;3.20;1.10;;;16.00;87.80;;;;;;5018675;28;20073;-78
2022/04/15 02:09:17;;;;;;;2.45;1.02;;;16.00;87.80;;;;;;4999998;28;20069;-76
2022/04/15 02:11:44;;;;;;;1.60;1.00;;;16.00;87.70;;;;;;5019844;28;20108;-78
2022/04/15 02:14:12;;;;;;;1.30;0.90;;;16.00;87.70;;;;;;5016686;28;20069;-77
2022/04/15 02:16:41;;;;;;;1.48;0.90;;;15.90;87.50;;;;;;5017082;28;20069;-78
2022/04/15 02:19:08;;;;;;;1.25;0.80;;;16.00;88.30;;;;;;5024244;28;20044;-78
2022/04/15 02:21:35;;;;;;;2.20;1.13;;;16.00;88.20;;;;;;4999020;28;20427;-77
2022/04/15 02:24:03;;;;;;;1.23;0.93;;;16.00;87.50;;;;;;5000760;28;20073;-78
2022/04/15 02:26:30;;;;;;;2.28;1.00;;;16.00;87.40;;;;;;5017193;28;20517;-78
2022/04/15 02:28:57;;;;;;;1.45;0.90;;;16.00;87.40;;;;;;4999854;28;20037;-78
2022/04/15 02:31:24;;;;;;;1.67;0.93;;;15.90;87.20;;;;;;5012003;28;20049;-77
2022/04/15 02:33:52;;;;;;;1.70;0.98;;;16.00;87.20;;;;;;5030544;28;20041;-77
2022/04/15 02:36:20;;;;;;;1.98;1.13;;;16.00;87.20;;;;;;5029602;28;20045;-78
2022/04/15 02:38:47;;;;;;;2.05;1.20;;;16.00;87.20;;;;;;5020804;28;20041;-78
2022/04/15 02:41:14;;;;;;;1.67;0.90;;;16.00;87.20;;;;;;5011842;28;20050;-77
2022/04/15 02:43:41;;;;;;;1.77;1.02;;;15.90;87.00;;;;;;5016233;28;20045;-77
2022/04/15 02:46:10;;;;;;;1.83;1.05;;;16.00;87.00;;;;;;5017473;28;20460;-77
2022/04/15 02:48:37;;;;;;;1.58;0.90;;;15.90;86.90;;;;;;5018012;28;20053;-77
2022/04/15 02:51:06;;;;;;;1.88;1.00;;;15.90;86.90;;;;;;5017575;28;20492;-77
2022/04/15 02:53:34;;;;;;;1.73;1.17;;;16.00;87.70;;;;;;5016456;28;20565;-77
2022/04/15 02:56:01;;;;;;;1.52;1.00;;;15.90;86.80;;;;;;5019225;28;20057;-77
2022/04/15 02:58:27;;;;;;;1.65;1.00;;;15.90;86.80;;;;;;5015662;28;20052;-77
2022/04/15 03:00:54;;;;;;;2.05;1.20;;;15.90;86.70;;;;;;5021731;28;20057;-76
2022/04/15 03:03:21;;;;;;;2.58;1.10;;;15.90;86.70;;;;;;5014943;28;20041;-78
2022/04/15 03:05:48;;;;;;;1.60;1.10;;;15.90;86.60;;;;;;5022932;28;20135;-77
2022/04/15 03:08:16;;;;;;;1.52;0.90;;;15.90;86.60;;;;;;5017179;28;20033;-77
2022/04/15 03:10:43;;;;;;;2.30;1.20;;;15.90;86.60;;;;;;4980047;28;20095;-78
2022/04/15 03:13:10;;;;;;;1.90;1.10;;;15.90;86.60;;;;;;5017961;28;20052;-78
2022/04/15 03:15:37;;;;;;;1.77;1.00;;;15.90;86.50;;;;;;5007052;28;20130;-78
2022/04/15 03:18:06;;;;;;;2.53;1.33;;;15.90;86.40;;;;;;5021679;28;20049;-77
2022/04/15 03:20:33;;;;;;;2.25;1.17;;;15.90;86.40;;;;;;5026710;28;20033;-78
2022/04/15 03:23:00;;;;;;;1.55;1.15;;;15.90;86.40;;;;;;5024128;28;20140;-79
2022/04/15 03:25:28;;;;;;;1.52;1.00;;;15.90;86.40;;;;;;5007702;28;20052;-77
2022/04/15 03:27:55;;;;;;;2.10;1.20;;;15.90;86.30;;;;;;5022854;28;20050;-78
2022/04/15 03:30:22;;;;;;;2.15;1.23;;;15.90;86.20;;;;;;5021677;28;20119;-77
2022/04/15 03:32:51;;;;;;;1.50;1.20;;;15.90;86.30;;;;;;5025764;28;20065;-80
2022/04/15 03:35:20;;;;;;;1.95;1.20;;;15.80;86.10;;;;;;5023045;28;20095;-78
2022/04/15 03:37:47;;;;;;;1.65;1.10;;;15.90;86.20;;;;;;5026320;28;20049;-77
2022/04/15 03:40:14;;;;;;;1.75;1.30;;;15.90;86.10;;;;;;5021862;28;20041;-78
2022/04/15 03:42:49;;;;;;;1.95;1.13;;;15.90;86.10;;;;;;5026815;28;20053;-77
2022/04/15 03:45:19;;;;;;;2.55;1.20;;;15.90;86.10;;;;;;5007685;28;20091;-79
2022/04/15 03:47:46;;;;;;;2.35;1.20;;;15.90;86.10;;;;;;5028962;28;20056;-77
2022/04/15 03:50:14;;;;;;;1.67;1.10;;;15.80;85.90;;;;;;5026504;28;20045;-78
2022/04/15 03:52:45;;;;;;;1.95;1.10;;;15.80;85.90;;;;;;5022533;28;20052;-77
2022/04/15 03:55:13;;;;;;;2.00;1.20;;;15.90;85.90;;;;;;5031478;28;20041;-77
2022/04/15 03:57:41;;;;;;;1.65;1.05;;;15.80;85.80;;;;;;5035936;28;20037;-78
2022/04/15 04:00:11;;;;;;;1.73;1.10;;;15.80;85.80;;;;;;5029540;28;20046;-77
2022/04/15 04:02:38;;;;;;;1.77;1.20;;;15.80;85.70;;;;;;5024722;28;20046;-77
2022/04/15 04:05:08;;;;;;;1.67;1.10;;;15.80;85.70;;;;;;5005482;28;20080;-77
2022/04/15 04:07:35;;;;;;;1.60;1.20;;;15.80;85.70;;;;;;5020291;28;20057;-78
2022/04/15 04:10:02;;;;;;;2.20;1.27;;;15.80;85.60;;;;;;5024416;28;20049;-77
2022/04/15 04:12:33;;;;;;;1.70;1.10;;;15.80;85.60;;;;;;5019551;28;20400;-79
2022/04/15 04:15:00;;;;;;;2.17;1.20;;;15.80;85.50;;;;;;5022396;28;20033;-78
2022/04/15 04:17:28;;;;;;;1.83;1.30;;;15.80;85.50;;;;;;5022491;28;20052;-78
2022/04/15 04:19:56;;;;;;;2.40;1.45;;;15.80;85.40;;;;;;5024364;28;20046;-79
2022/04/15 04:22:27;;;;;;;1.80;1.30;;;15.80;85.40;;;;;;5015956;28;20042;-78
2022/04/15 04:24:55;;;;;;;2.30;1.40;;;15.80;85.40;;;;;;5022071;28;20037;-80
2022/04/15 04:27:22;;;;;;;2.60;1.33;;;15.80;85.30;;;;;;5019704;28;20053;-77
2022/04/15 04:29:49;;;;;;;1.95;1.30;;;15.80;85.30;;;;;;5019970;28;20049;-77
2022/04/15 04:32:16;;;;;;;2.25;1.50;;;15.80;85.30;;;;;;5019833;28;20136;-77
2022/04/15 04:34:45;;;;;;;2.03;1.20;;;15.70;85.10;;;;;;5021228;28;20049;-78
2022/04/15 04:37:12;;;;;;;2.17;1.50;;;15.80;85.20;;;;;;4997376;28;20057;-78
2022/04/15 04:39:41;;;;;;;2.00;1.30;;;15.70;85.20;;;;;;5015738;28;20144;-77
2022/04/15 04:42:08;;;;;;;2.60;1.50;;;15.80;85.30;;;;;;5003196;28;20118;-78
2022/04/15 04:44:36;;;;;;;2.08;1.30;;;15.80;85.00;;;;;;5017924;28;20488;-76
2022/04/15 04:47:03;;;;;;;1.88;1.30;;;15.70;85.80;;;;;;5026972;28;20083;-78
2022/04/15 04:49:30;;;;;;;3.05;1.38;;;15.80;85.00;;;;;;5014475;28;20053;-76
2022/04/15 04:51:58;;;;;;;2.22;1.30;;;15.80;85.10;;;;;;5014182;28;20045;-76
2022/04/15 04:54:25;;;;;;;2.47;1.40;;;15.80;85.10;;;;;;5022628;28;20037;-80
2022/04/15 04:56:52;;;;;;;2.22;1.27;;;15.80;85.10;;;;;;5026277;28;20112;-76
2022/04/15 04:59:22;;;;;;;2.83;1.80;;;15.80;84.90;;;;;;5010088;28;20056;-75
2022/04/15 05:01:49;;;;;;;2.05;1.60;;;15.70;84.70;;;;;;5015730;28;20045;-75
2022/04/15 05:04:16;;;;;;;2.40;1.60;;;15.70;84.70;;;;;;5018045;28;20046;-76
2022/04/15 05:06:42;;;;;;;2.40;1.58;;;15.70;84.70;;;;;;5024993;28;20122;-77
2022/04/15 05:09:11;;;;;;;2.70;1.73;;;15.80;84.80;;;;;;5021038;28;20540;-76
2022/04/15 05:11:37;;;;;;;2.70;2.08;;;15.70;84.60;;;;;;5019671;28;20045;-77
2022/04/15 05:14:04;;;;;;;2.70;1.80;;;15.70;84.50;;;;;;5022114;28;20076;-76
2022/04/15 05:16:31;;;;;;;2.90;1.70;;;15.70;84.50;;;;;;5019897;28;20045;-76
2022/04/15 05:18:58;;;;;;;2.70;1.80;;;15.70;84.40;;;;;;5012769;28;20044;-77
2022/04/15 05:21:25;;;;;;;2.10;1.80;;;15.70;84.50;;;;;;5020125;28;20073;-80
2022/04/15 05:23:52;;;;;;;2.60;1.77;;;15.70;84.30;;;;;;5018686;28;20033;-77
2022/04/15 05:26:21;;;;;;;2.85;1.80;;;15.70;84.30;;;;;;5018403;28;20042;-80
2022/04/15 05:28:47;;;;;;;2.42;1.90;;;15.70;84.30;;;;;;5019499;28;20136;-75
2022/04/15 05:31:14;;;;;;;2.13;1.70;;;15.70;84.20;;;;;;5021315;28;20049;-77
2022/04/15 05:33:41;;;;;;;2.83;2.00;;;15.70;84.20;;;;;;5021385;28;20045;-77
2022/04/15 05:36:08;;;;;;;2.35;1.83;;;15.70;84.00;;;;;;5020778;28;20157;-76
2022/04/15 05:38:35;;;;;;;2.92;1.90;;;15.70;84.10;;;;;;5020374;28;20091;-77
2022/04/15 05:41:02;;;;;;;3.30;1.70;;;15.80;84.00;;;;;;5006221;28;20049;-77
2022/04/15 05:43:30;;;;;;;2.00;1.70;;;15.70;83.70;;;;;;5022416;28;20048;-76
2022/04/15 05:45:57;;;;;;;6.03;1.70;;;15.70;83.60;;;;;;5018919;28;20040;-77
2022/04/15 05:48:24;;;;;;;3.47;1.63;;;15.70;83.60;;;;;;5005963;28;20129;-77
2022/04/15 05:50:51;;;;;;;5.00;1.60;;;15.70;83.60;;;;;;5025458;28;20128;-76
2022/04/15 05:53:18;;;;;;;5.07;1.70;;;15.70;83.70;;;;;;5027478;28;20049;-77
2022/04/15 05:55:45;;;;;;;3.38;1.60;;;15.70;83.70;;;;;;5019701;28;20246;-78
2022/04/15 05:58:12;;;;;;;5.13;1.45;;;15.70;83.70;;;;;;5027680;28;20053;-76
2022/04/15 06:00:40;;;;;;;8.07;1.60;;;15.70;83.70;;;;;;5021799;28;20046;-78
2022/04/15 06:03:08;;;;;;;3.67;1.55;;;15.70;83.70;;;;;;5023533;28;20124;-76
2022/04/15 06:05:35;;;;;;;3.97;1.75;;;15.70;83.70;;;;;;5023506;28;20544;-77
2022/04/15 06:08:02;;;;;;;3.55;1.60;;;15.70;83.70;;;;;;5022115;28;20041;-77
2022/04/15 06:10:30;;;;;;;3.50;1.48;;;15.70;83.70;;;;;;5021072;28;20037;-76
2022/04/15 06:13:03;;;;;;;5.00;1.50;;;15.70;84.40;;;;;;5012367;28;20037;-75
2022/04/15 06:15:32;;;;;;;5.43;1.50;;;15.70;83.60;;;;;;4998463;28;20045;-78
2022/04/15 06:18:02;;;;;;;4.35;1.27;;;15.70;83.60;;;;;;5021534;28;20045;-75
2022/04/15 06:20:31;;;;;;;3.42;1.60;;;15.70;83.40;;;;;;4998900;28;20038;-78
2022/04/15 06:22:58;;;;;;;3.40;1.60;;;15.70;83.40;;;;;;5020133;28;20038;-77
2022/04/15 06:25:46;;;;;;;5.05;1.42;;;15.70;83.20;;;;;;5012788;28;20054;-77
2022/04/15 06:28:21;;;;;;;3.28;1.40;;;15.70;83.30;;;;;;5017536;28;20042;-77
2022/04/15 06:30:48;;;;;;;2.30;1.30;;;15.70;83.10;;;;;;5020299;28;20057;-78
2022/04/15 06:33:19;;;;;;;3.88;1.40;;;15.70;83.20;;;;;;5019854;28;20088;-77
2022/04/15 06:35:47;;;;;;;2.38;1.63;;;15.70;83.20;;;;;;5020962;28;20108;-76
2022/04/15 06:38:14;;;;;;;2.58;1.40;;;15.70;83.20;;;;;;5005973;28;20045;-77
2022/04/15 06:40:41;;;;;;;3.85;1.30;;;15.70;83.20;;;;;;5021058;28;20088;-76
2022/04/15 06:43:08;;;;;;;3.83;1.40;;;15.70;83.00;;;;;;5024361;28;20045;-76
2022/04/15 06:45:35;;;;;;;3.95;1.30;;;15.70;82.90;;;;;;5018132;28;20073;-77
2022/04/15 06:48:02;;;;;;;2.28;1.10;;;15.70;82.80;;;;;;5027762;28;20037;-77
2022/04/15 06:50:31;;;;;;;2.75;1.48;;;15.70;82.70;;;;;;5023198;28;20045;-76
2022/04/15 06:52:58;;;;;;;3.47;1.20;;;15.70;82.60;;;;;;5028020;28;20552;-76
2022/04/15 06:55:25;;;;;;;3.15;1.20;;;15.80;82.70;;;;;;5024931;28;20068;-77
2022/04/15 06:57:52;;;;;;;2.25;1.30;;;15.70;82.60;;;;;;5003706;28;20112;-77
2022/04/15 07:00:20;;;;;;;2.53;1.40;;;15.70;82.60;;;;;;5020958;28;20136;-76
2022/04/15 07:02:47;;;;;;;3.55;1.38;;;15.70;82.50;;;;;;5017790;28;20048;-77
2022/04/15 07:05:13;;;;;;;5.53;1.23;;;15.70;82.20;;;;;;5030649;28;20068;-77
2022/04/15 07:07:43;;;;;;;2.22;1.20;;;15.70;82.30;;;;;;5017521;28;20049;-77
2022/04/15 07:10:12;;;;;;;2.22;1.20;;;15.70;82.20;;;;;;5024213;28;20069;-78
2022/04/15 07:12:39;;;;;;;2.90;1.20;;;15.70;81.90;;;;;;5008891;28;20053;-77
2022/04/15 07:15:08;;;;;;;2.55;1.30;;;15.70;81.90;;;;;;5021825;28;20049;-79
2022/04/15 07:17:35;;;;;;;2.47;1.30;;;15.70;81.70;;;;;;5023768;28;20111;-77
2022/04/15 07:20:02;;;;;;;3.50;1.10;;;15.70;81.70;;;;;;5023630;28;20045;-77
2022/04/15 07:22:29;;;;;;;1.80;1.17;;;15.70;81.60;;;;;;5014665;28;20057;-79
2022/04/15 07:24:57;;;;;;;2.75;1.20;;;15.70;81.30;;;;;;5011071;28;20092;-78
2022/04/15 07:27:24;;;;;;;2.67;1.23;;;15.70;81.30;;;;;;5025563;28;20049;-77
2022/04/15 07:29:52;;;;;;;3.38;1.20;;;15.70;81.20;;;;;;5022172;28;20121;-77
2022/04/15 07:32:22;;;;;;;1.70;1.00;;;15.70;81.00;;;;;;5022422;28;20037;-78
2022/04/15 07:34:50;;;;;;;2.60;1.10;;;15.70;81.10;;;;;;5022078;28;20045;-77
2022/04/15 07:37:17;;;;;;;2.72;1.10;;;15.70;80.80;;;;;;5003658;28;20037;-78
2022/04/15 07:39:44;;;;;;;2.45;1.13;;;15.70;80.80;;;;;;5025596;28;20069;-76
2022/04/15 07:42:13;;;;;;;2.05;1.10;;;15.70;80.80;;;;;;5021970;28;20056;-78
2022/04/15 07:44:40;;;;;;;3.08;1.13;;;15.70;81.00;;;;;;5023376;28;20105;-78
2022/04/15 07:47:08;;;;;;;1.27;0.90;;;15.70;81.00;;;;;;5024908;28;20088;-77
2022/04/15 07:49:35;;;;;;;2.90;1.05;;;15.80;81.10;;;;;;5030988;28;20068;-77
2022/04/15 07:52:04;;;;;;;1.60;0.90;;;15.70;81.00;;;;;;5032683;28;20717;-77
2022/04/15 07:54:31;;;;;;;2.72;1.15;;;15.70;81.10;;;;;;5040685;28;20136;-78
2022/04/15 07:56:58;;;;;;;2.72;1.38;;;15.70;80.60;;;;;;5042412;28;20068;-78
2022/04/15 07:59:26;;;;;;;3.25;1.13;;;15.80;80.60;;;;;;5003786;28;20076;-79
2022/04/15 08:01:53;;;;;;;2.65;1.20;;;15.80;80.30;;;;;;5018407;28;20125;-78
2022/04/15 08:04:20;;;;;;;1.40;0.90;;;15.80;80.20;;;;;;5022925;28;20044;-81
2022/04/15 08:06:48;;;;;;;2.17;1.10;;;15.80;80.20;;;;;;5019672;28;20053;-78
2022/04/15 08:09:15;;;;;;;2.65;1.35;;;15.70;80.00;;;;;;5020715;28;20049;-77
2022/04/15 08:11:42;;;;;;;2.47;1.10;;;15.90;79.80;;;;;;5010120;28;20072;-76
2022/04/15 08:14:09;;;;;;;1.73;1.00;;;15.80;79.70;;;;;;4998794;28;20095;-77
2022/04/15 08:16:37;;;;;;;2.33;1.00;;;15.80;79.60;;;;;;5021720;28;20041;-77
2022/04/15 08:19:05;;;;;;;2.20;1.00;;;15.80;79.20;;;;;;5002250;28;20044;-76
2022/04/15 08:21:33;;;;;;;2.08;0.90;;;15.80;79.20;;;;;;5017992;28;20048;-76
2022/04/15 08:24:01;;;;;;;3.05;1.13;;;15.70;78.90;;;;;;5019811;28;20041;-79
2022/04/15 08:26:29;;;;;;;1.10;0.88;;;15.80;79.20;;;;;;5018248;28;20530;-74
2022/04/15 08:28:56;;;;;;;2.20;1.00;;;15.80;79.30;;;;;;5013281;28;20041;-76
2022/04/15 08:31:23;;;;;;;2.95;1.20;;;15.70;79.10;;;;;;5017414;28;20037;-78
2022/04/15 08:33:52;;;;;;;3.65;1.05;;;15.80;78.80;;;;;;5018706;28;20400;-79
2022/04/15 08:36:19;;;;;;;2.70;0.90;;;15.80;78.90;;;;;;5012711;28;20050;-79
2022/04/15 08:38:46;;;;;;;2.03;0.90;;;15.80;78.80;;;;;;5023289;28;20049;-77
2022/04/15 08:41:14;;;;;;;1.95;1.00;;;15.80;79.00;;;;;;5019818;28;20045;-77
2022/04/15 08:43:42;;;;;;;1.75;0.90;;;15.80;78.80;;;;;;5020991;28;20030;-80
2022/04/15 08:46:10;;;;;;;1.77;0.98;;;15.80;78.80;;;;;;4999554;28;20045;-79
2022/04/15 08:48:39;;;;;;;1.55;0.80;;;15.80;78.80;;;;;;5004346;28;20145;-78
2022/04/15 08:51:21;;;;;;;2.47;1.10;;;15.80;78.70;;;;;;5020531;28;20065;-78
2022/04/15 08:53:52;;;;;;;1.50;0.77;;;15.70;78.60;;;;;;5022378;28;20045;-81
2022/04/15 08:56:21;;;;;;;1.77;0.90;;;15.70;78.70;;;;;;5018974;28;20205;-78
2022/04/15 08:58:48;;;;;;;1.98;0.80;;;15.70;78.70;;;;;;4998310;28;20061;-77
2022/04/15 09:01:15;;;;;;;1.92;0.90;;;15.80;78.60;;;;;;4984417;28;20096;-77
2022/04/15 09:03:42;;;;;;;2.35;0.93;;;15.70;78.60;;;;;;5003035;28;20123;-78
2022/04/15 09:06:14;;;;;;;1.90;0.85;;;15.70;78.60;;;;;;5003450;28;20155;-78
2022/04/15 09:08:56;;;;;;;;;;;15.80;78.70;;;;;;5001981;28;20124;-78
2022/04/15 09:11:37;;;;;;;1.35;0.80;;;15.70;78.50;;;;;;4997879;28;19968;-77
2022/04/15 09:14:08;;;;;;;2.10;0.80;;;15.80;78.40;;;;;;4998472;28;20052;-81
2022/04/15 09:16:39;;;;;;;1.65;0.70;;;15.80;78.70;;;;;;5004973;28;20050;-76
2022/04/15 09:19:08;;;;;;;1.63;0.80;;;15.80;78.80;;;;;;4995010;28;20069;-77
2022/04/15 09:21:36;;;;;;;2.25;0.80;;;15.80;78.40;;;;;;5022020;28;20041;-77
2022/04/15 09:24:04;;;;;;;1.60;0.90;;;15.80;78.30;;;;;;5010085;28;20046;-78
2022/04/15 09:26:31;;;;;;;4.18;1.00;;;15.80;78.00;;;;;;4995178;28;20379;-81
2022/04/15 09:29:00;;;;;;;4.18;1.00;;;15.80;78.10;;;;;;4981848;28;20060;-78
2022/04/15 09:31:27;;;;;;;2.03;0.90;;;15.90;78.20;;;;;;4999453;28;20040;-80
2022/04/15 09:33:58;;;;;;;1.70;0.82;;;15.80;78.70;;;;;;5003103;28;20081;-76
2022/04/15 09:36:30;;;;;;;2.10;0.90;;;15.80;78.10;;;;;;5002981;28;20047;-79
2022/04/15 09:39:04;;;;;;;1.60;0.90;;;15.80;78.10;;;;;;4998980;28;20091;-78
2022/04/15 09:41:31;;;;;;;2.92;0.90;;;15.90;78.70;;;;;;5004482;28;20382;-77
2022/04/15 09:44:00;;;;;;;3.70;0.70;;;15.80;78.30;;;;;;5000522;28;20037;-76
2022/04/15 09:46:29;;;;;;;2.53;1.00;;;15.90;78.20;;;;;;5004243;28;20121;-77
2022/04/15 09:49:06;;;;;;;2.17;0.85;;;15.90;78.20;;;;;;4983466;28;20128;-77
2022/04/15 09:51:41;;;;;;;2.65;0.70;;;15.90;78.30;;;;;;5013883;28;20041;-77
2022/04/15 09:54:11;;;;;;;1.75;0.82;;;15.90;78.30;;;;;;4995171;28;20042;-76
2022/04/15 09:56:42;;;;;;;1.70;0.77;;;15.90;78.50;;;;;;4989540;28;20072;-76
2022/04/15 09:59:15;;;;;;;1.60;0.73;;;15.90;78.00;;;;;;5004362;28;20063;-78
2022/04/15 10:01:45;;;;;;;2.33;0.90;;;15.90;77.90;;;;;;5021975;28;20045;-77
2022/04/15 10:04:13;;;;;;;1.52;0.80;;;15.90;77.90;;;;;;5020186;28;20047;-77
2022/04/15 10:06:41;;;;;;;1.70;0.70;;;15.90;78.20;;;;;;5021676;28;20049;-79
2022/04/15 10:09:11;;;;;;;1.23;0.63;;;15.90;78.40;;;;;;5011509;28;20095;-77
2022/04/15 10:11:40;;;;;;;1.67;0.88;;;15.90;78.60;;;;;;5018462;28;20036;-76
2022/04/15 10:14:09;;;;;;;2.35;0.70;;;15.90;78.50;;;;;;5014476;28;20507;-77
2022/04/15 10:16:38;;;;;;;1.95;0.65;;;15.90;77.90;;;;;;5011533;28;20404;-75
2022/04/15 10:19:05;;;;;;;1.15;0.60;;;15.90;78.10;;;;;;5021246;28;20048;-78
2022/04/15 10:21:34;;;;;;;1.80;0.70;;;15.90;78.00;;;;;;4996334;28;20033;-78
2022/04/15 10:24:03;;;;;;;1.42;0.70;;;15.90;77.60;;;;;;5017882;28;20049;-78
2022/04/15 10:26:41;;;;;;;1.50;0.65;;;15.90;77.50;;;;;;5003449;28;20173;-77
2022/04/15 10:29:15;;;;;;;1.48;0.73;;;15.90;77.70;;;;;;5011748;28;20045;-75
2022/04/15 10:31:45;;;;;;;1.67;0.85;;;16.00;78.20;;;;;;5018407;28;20669;-77
2022/04/15 10:34:13;;;;;;;1.35;0.80;;;16.00;79.10;;;;;;5018095;28;20041;-76
2022/04/15 10:36:48;;;;;;;4.32;0.90;;;16.00;78.20;;;;;;5016702;28;20061;-76
2022/04/15 10:39:17;;;;;;;3.05;0.85;;;16.00;78.20;;;;;;5019305;28;20041;-76
2022/04/15 10:41:56;;;;;;;1.88;0.85;;;16.00;78.40;;;;;;5021403;28;20037;-76
2022/04/15 10:44:47;;;;;;;1.25;0.70;;;16.00;78.00;;;;;;5020025;28;20488;-75
2022/04/15 10:47:29;;;;;;;1.30;0.70;;;16.00;77.70;;;;;;5006531;28;20049;-76
2022/04/15 10:50:01;;;;;;;3.85;0.70;;;16.00;77.80;;;;;;5003314;28;20472;-76
2022/04/15 10:52:30;;;;;;;1.80;0.70;;;16.00;77.90;;;;;;5017770;28;20484;-76
2022/04/15 10:55:00;;;;;;;1.70;0.70;;;16.00;77.50;;;;;;5023718;28;20041;-76
2022/04/15 10:57:37;;;;;;;2.10;0.70;;;16.00;77.50;;;;;;5002249;28;20076;-76
2022/04/15 11:03:01;;;;;;;3.42;0.65;;;16.00;77.30;;;;;;5005993;28;20041;-76
2022/04/15 11:05:52;;;;;;;2.00;0.75;;;16.00;77.40;;;;;;5027162;28;20045;-75
2022/04/15 11:08:20;;;;;;;3.75;0.70;;;16.00;77.60;;;;;;5020588;28;20100;-75
2022/04/15 11:11:03;;;;;;;3.85;0.75;;;16.10;77.50;;;;;;5022978;28;20057;-76
2022/04/15 11:13:34;;;;;;;1.52;0.70;;;16.00;77.60;;;;;;4999003;28;20512;-76
2022/04/15 11:16:02;;;;;;;2.63;0.77;;;16.00;77.30;;;;;;5018016;28;21043;-76
2022/04/15 11:18:50;;;;;;;2.47;0.68;;;16.10;77.20;;;;;;5020766;28;20107;-76
2022/04/15 11:21:21;;;;;;;2.85;0.70;;;16.10;76.90;;;;;;5019165;28;20052;-76
2022/04/15 11:23:50;;;;;;;5.30;0.85;;;16.10;76.80;;;;;;5021614;28;20049;-76
2022/04/15 11:26:18;;;;;;;1.88;0.70;;;16.10;76.90;;;;;;5021827;28;20092;-77
2022/04/15 11:28:46;;;;;;;1.60;0.60;;;16.00;76.60;;;;;;5020063;28;20046;-75
2022/04/15 11:31:25;;;;;;;2.60;0.60;;;16.00;76.40;;;;;;5005759;28;20037;-77
2022/04/15 11:33:55;;;;;;;1.55;0.90;;;16.00;76.40;;;;;;5024546;28;20046;-76
2022/04/15 11:36:25;;;;;;;3.50;0.75;;;16.00;76.40;;;;;;5026615;28;20065;-75
2022/04/15 11:38:52;;;;;;;1.38;0.60;;;16.00;76.40;;;;;;5022214;28;20042;-76
2022/04/15 11:41:20;;;;;;;2.20;0.82;;;16.10;76.50;;;;;;5028921;28;20046;-77
2022/04/15 11:43:59;;;;;;;1.83;0.57;;;16.00;76.50;;;;;;5022158;28;20034;-79
2022/04/15 11:46:28;;;;;;;1.58;0.70;;;16.00;76.30;;;;;;5026630;28;20037;-78
2022/04/15 11:48:57;;;;;;;1.77;0.73;;;16.00;76.30;;;;;;5025333;28;20103;-77
2022/04/15 11:51:25;;;;;;;1.25;0.55;;;16.00;76.30;;;;;;5044236;28;20042;-76
2022/04/15 11:53:54;;;;;;;1.98;0.80;;;16.00;76.30;;;;;;5034582;28;20034;-77
2022/04/15 11:56:27;;;;;;;1.65;0.70;;;16.00;76.30;;;;;;5027128;28;20030;-76
2022/04/15 11:58:54;;;;;;;;;;;16.00;76.40;;;;;;5022355;28;20052;-76
2022/04/15 12:01:27;;;;;;;1.67;0.77;;;16.00;76.40;;;;;;5022782;28;20467;-76
2022/04/15 12:03:55;;;;;;;2.10;0.73;;;16.10;77.10;;;;;;5021010;28;20053;-76
2022/04/15 12:06:23;;;;;;;1.52;0.75;;;16.00;76.30;;;;;;5022801;28;20052;-77
2022/04/15 12:08:51;;;;;;;1.85;0.75;;;16.00;76.30;;;;;;5024304;28;20045;-77
2022/04/15 12:11:22;;;;;;;2.05;0.70;;;16.00;76.20;;;;;;5017976;28;20050;-77
2022/04/15 12:13:53;;;;;;;2.55;0.60;;;16.00;76.30;;;;;;5023156;28;20047;-77
2022/04/15 12:16:20;;;;;;;1.55;0.60;;;16.10;76.30;;;;;;5024078;28;20111;-77
2022/04/15 12:18:47;;;;;;;4.00;0.70;;;16.00;76.20;;;;;;5018552;28;20046;-78
2022/04/15 12:21:17;;;;;;;2.63;0.88;;;16.00;76.20;;;;;;5022809;28;20041;-77
2022/04/15 12:24:02;;;;;;;1.73;0.88;;;16.00;76.00;;;;;;5021872;28;20120;-78
2022/04/15 12:26:29;;;;;;;1.92;0.82;;;16.00;76.20;;;;;;5018846;28;20042;-78
2022/04/15 12:31:49;;;;;;;1.50;0.60;;;16.00;76.70;;;;;;5020151;28;20046;-77
2022/04/15 12:34:16;;;;;;;1.50;0.63;;;16.00;76.00;;;;;;5024462;28;20038;-77
2022/04/15 12:36:46;;;;;;;1.52;0.70;;;16.00;76.00;;;;;;5017786;28;20050;-77
2022/04/15 12:39:13;;;;;;;1.40;0.70;;;16.00;76.10;;;;;;5024199;28;20107;-76
2022/04/15 12:41:43;;;;;;;1.38;0.70;;;16.00;76.00;;;;;;5011486;28;20435;-77
2022/04/15 12:44:15;;;;;;;1.50;0.70;;;15.90;75.90;;;;;;5016851;28;20037;-77
2022/04/15 12:46:44;;;;;;;1.08;0.63;;;16.00;75.90;;;;;;5021495;28;20140;-77
2022/04/15 12:49:28;;;;;;;1.88;0.85;;;16.00;76.10;;;;;;5017524;28;20535;-77
2022/04/15 12:52:15;;;;;;;1.60;0.77;;;16.00;75.80;;;;;;5018347;28;20050;-78
2022/04/15 12:55:00;;;;;;;1.83;0.85;;;16.00;75.80;;;;;;5019179;28;20103;-77
2022/04/15 12:57:34;;;;;;;3.00;0.90;;;16.00;75.90;;;;;;5016834;28;20049;-75
2022/04/15 13:00:02;;;;;;;1.85;0.70;;;16.00;75.90;;;;;;5019578;28;20055;-77
2022/04/15 13:02:29;;;;;;;1.55;0.80;;;15.90;76.60;;;;;;5017664;28;20094;-76